Latest Weather Observations for Lihou Reef Lighthouse

IDQ60801

Issued at 1:52 pm EST Thursday 25 April 2024 (issued every 10 minutes, with the page automatically refreshed every 10 minutes)

About weather observations | Map of weather stations | Latest weather observations for QLD | Other Formats
Station Details ID: 200880 Name: LIHOU REEF LIGHTHOUSE Lat: -17.13 Lon: 152.15 Height: 10.26 m
Data from the previous 72 hours. | See also: Recent months at Lihou Reef Lighthouse
Date/Time
EST
Temp
°C
App
Temp
°C
Dew
Point
°C
Rel
Hum
%
Delta-T
°C
Wind Press
QNH
hPa
Press
MSL
hPa
Rain since
9am
mm
Dir  Spd
km/h
Gust
km/h
Spd
kts
Gust
kts
25/01:30pm 25.5 - - - - ESE 6 9 3 5 1011.9 1011.8 -
25/01:00pm 25.4 - - - - ESE 7 15 4 8 1012.2 1012.1 -
25/12:30pm 24.0 - - - - ESE 7 9 4 5 1012.6 1012.5 -
25/12:00pm 24.2 - - - - SE 24 30 13 16 1012.9 1012.8 -
25/11:30am 24.3 - - - - SE 32 35 17 19 1013.0 1012.9 -
25/11:00am 25.6 - - - - ESE 28 33 15 18 1013.3 1013.2 -
25/10:30am 26.7 - - - - ESE 22 26 12 14 1013.6 1013.5 -
25/10:00am 26.5 - - - - ESE 22 26 12 14 1013.9 1013.8 -
25/09:30am 25.9 - - - - ESE 26 30 14 16 1014.0 1013.9 -
25/09:00am 26.2 - - - - ESE 26 30 14 16 1014.0 1013.9 -
25/08:30am 26.4 - - - - SE 22 26 12 14 1013.8 1013.7 -
25/08:00am 26.4 - - - - SE 19 22 10 12 1013.5 1013.4 -
25/07:30am 26.3 - - - - SE 20 26 11 14 1013.3 1013.2 -
25/07:00am 26.0 - - - - SE 24 28 13 15 1012.9 1012.8 -
25/06:30am 25.9 - - - - SSE 24 28 13 15 1012.7 1012.6 -
25/06:00am 25.9 - - - - SSE 22 26 12 14 1012.3 1012.2 -
25/05:30am 25.8 - - - - SSE 22 28 12 15 1012.0 1011.9 -
25/05:00am 25.9 - - - - SSE 22 28 12 15 1011.8 1011.7 -
25/04:30am 26.2 - - - - SSE 24 30 13 16 1011.5 1011.4 -
25/04:00am 26.1 - - - - SSE 24 30 13 16 1011.7 1011.6 -
25/03:30am 26.3 - - - - SSE 22 28 12 15 1011.8 1011.7 -
25/03:00am 26.2 - - - - SSE 24 28 13 15 1012.0 1011.9 -
25/02:30am 26.3 - - - - SSE 26 32 14 17 1012.2 1012.1 -
25/02:00am 26.3 - - - - SSE 24 30 13 16 1012.4 1012.3 -
25/01:30am 26.2 - - - - SSE 28 32 15 17 1012.7 1012.6 -
25/01:00am 26.5 - - - - SSE 28 32 15 17 1013.0 1012.9 -
25/12:30am 26.5 - - - - SSE 28 32 15 17 1013.3 1013.2 -
25/12:00am 26.4 - - - - SSE 28 33 15 18 1013.7 1013.6 -
 
Date/Time
EST
Temp
°C
App
Temp
°C
Dew
Point
°C
Rel
Hum
%
Delta-T
°C
Wind Press
QNH
hPa
Press
MSL
hPa
Rain since
9am
mm
Dir  Spd
km/h
Gust
km/h
Spd
kts
Gust
kts
24/11:30pm 26.7 - - - - SSE 28 33 15 18 1013.9 1013.8 -
24/11:00pm 26.5 - - - - SSE 32 35 17 19 1013.9 1013.8 -
24/10:30pm 26.4 - - - - SSE 32 35 17 19 1013.9 1013.8 -
24/10:00pm 26.6 - - - - SSE 32 35 17 19 1013.8 1013.7 -
24/09:30pm 26.7 - - - - SSE 33 37 18 20 1013.7 1013.6 -
24/09:00pm 26.6 - - - - SSE 33 39 18 21 1013.6 1013.5 -
24/08:30pm 26.7 - - - - SSE 35 41 19 22 1013.5 1013.4 -
24/08:00pm 26.9 - - - - SSE 33 39 18 21 1013.5 1013.4 -
24/07:30pm 26.7 - - - - SSE 35 41 19 22 1013.2 1013.1 -
24/07:00pm 26.9 - - - - SSE 32 37 17 20 1013.1 1013.0 -
24/06:30pm 26.6 - - - - SSE 33 39 18 21 1012.5 1012.4 -
24/06:00pm 26.6 - - - - SSE 32 35 17 19 1012.5 1012.4 -
24/05:30pm 27.0 - - - - SSE 32 39 17 21 1012.3 1012.2 -
24/05:00pm 26.9 - - - - SSE 32 39 17 21 1011.9 1011.8 -
24/04:30pm 26.9 - - - - SSE 33 39 18 21 1011.8 1011.7 -
24/04:00pm 27.0 - - - - SSE 32 37 17 20 1011.6 1011.5 -
24/03:30pm 27.1 - - - - SSE 32 35 17 19 1011.6 1011.5 -
24/03:00pm 26.9 - - - - SE 28 32 15 17 1011.7 1011.6 -
24/02:30pm 27.2 - - - - SE 28 33 15 18 1011.7 1011.6 -
24/02:00pm 27.1 - - - - SE 28 30 15 16 1012.0 1011.9 -
24/01:30pm 27.0 - - - - SE 30 33 16 18 1012.3 1012.2 -
24/01:00pm 27.1 - - - - SE 32 35 17 19 1012.3 1012.2 -
24/12:30pm 27.0 - - - - SE 28 32 15 17 1012.6 1012.5 -
24/12:00pm 27.0 - - - - SE 30 33 16 18 1012.8 1012.7 -
24/11:30am 26.9 - - - - SE 24 28 13 15 1013.2 1013.1 -
24/11:00am 26.9 - - - - SE 32 43 17 23 1013.6 1013.5 -
24/10:34am 26.8 - - - - SE 24 32 13 17 1013.9 1013.8 -
24/10:33am 27.4 - - - - SE 24 28 13 15 1009.9 1009.8 -
24/10:30am 26.7 - - - - SE 26 30 14 16 1014.0 1013.9 -
24/10:05am 26.7 - - - - SE 24 28 13 15 1014.1 1014.0 -
24/10:04am 27.1 - - - - SE 24 28 13 15 1010.4 1010.3 -
24/10:00am 26.6 - - - - SE 24 28 13 15 1014.1 1014.0 -
24/09:30am 26.5 - - - - SE 28 35 15 19 1014.2 1014.1 -
24/09:08am 26.4 - - - - SE 26 32 14 17 1014.2 1014.1 -
24/09:07am 27.6 - - - - SE 26 30 14 16 1010.9 1010.8 -
24/09:00am 26.1 - - - - SE 28 37 15 20 1014.1 1014.0 -
24/08:59am 26.1 - - - - SE 28 37 15 20 1014.1 1014.0 -
24/08:58am 27.8 - - - - SE 28 37 15 20 1010.9 1010.8 -
24/08:57am 26.3 - - - - SE 30 37 16 20 1014.1 1014.0 -
24/08:56am 27.7 - - - - SE 30 37 16 20 1010.9 1010.8 -
24/08:43am 26.5 - - - - SE 28 33 15 18 1014.0 1013.9 -
24/08:42am 27.4 - - - - SE 30 37 16 20 1010.9 1010.8 -
24/08:30am 26.2 - - - - SE 33 39 18 21 1013.7 1013.6 -
24/08:00am 26.7 - - - - SE 33 37 18 20 1013.3 1013.2 -
24/07:30am 26.4 - - - - SE 28 35 15 19 1013.2 1013.1 -
24/07:00am 26.6 - - - - SE 33 39 18 21 1012.6 1012.5 -
24/06:30am 26.6 - - - - SE 35 43 19 23 1012.3 1012.2 -
24/06:00am 25.9 - - - - SE 30 37 16 20 1012.0 1011.9 -
24/05:30am 26.6 - - - - SE 33 39 18 21 1011.8 1011.7 -
24/05:00am 26.5 - - - - SE 35 41 19 22 1011.4 1011.3 -
24/04:30am 26.5 - - - - SE 35 41 19 22 1011.4 1011.3 -
24/04:00am 26.6 - - - - SE 33 39 18 21 1011.4 1011.3 -
24/03:30am 26.0 - - - - SE 37 43 20 23 1011.1 1011.0 -
24/03:00am 26.3 - - - - SE 35 41 19 22 1011.3 1011.2 -
24/02:30am 26.3 - - - - SE 32 39 17 21 1011.5 1011.4 -
24/02:00am 26.4 - - - - SE 37 43 20 23 1011.8 1011.7 -
24/01:30am 26.3 - - - - SE 35 43 19 23 1011.9 1011.8 -
24/01:00am 26.7 - - - - SE 35 43 19 23 1012.2 1012.1 -
24/12:30am 26.8 - - - - SE 39 44 21 24 1012.6 1012.5 -
24/12:11am 26.5 - - - - ESE 35 43 19 23 1012.8 1012.7 -
24/12:08am 26.8 - - - - E 35 43 19 23 1012.9 1012.8 -
24/12:05am 26.9 - - - - ESE 35 43 19 23 1008.9 1008.8 -
24/12:00am 26.9 - - - - SE 35 43 19 23 1012.9 1012.8 -
 
Date/Time
EST
Temp
°C
App
Temp
°C
Dew
Point
°C
Rel
Hum
%
Delta-T
°C
Wind Press
QNH
hPa
Press
MSL
hPa
Rain since
9am
mm
Dir  Spd
km/h
Gust
km/h
Spd
kts
Gust
kts
23/11:59pm 26.9 - - - - SE 35 43 19 23 1009.3 1009.2 -
23/11:30pm 26.8 - - - - SE 37 43 20 23 1013.0 1012.9 -
23/11:00pm 27.0 - - - - SE 33 41 18 22 1013.3 1013.2 -
23/10:56pm 27.0 - - - - SE 33 41 18 22 1013.4 1013.3 -
23/10:55pm 27.0 - - - - SE 33 43 18 23 1010.7 1010.6 -
23/10:38pm 27.1 - - - - SE 28 41 15 22 1013.3 1013.2 -
23/10:36pm 27.1 - - - - SE 17 28 9 15 1011.0 1010.9 -
23/10:35pm - - - - - - - - - - 1013.3 1013.2 -
23/10:34pm 27.1 - - - - - - - - - 1013.3 1013.2 -
23/10:30pm 28.9 - - - - SSE 28 43 15 23 1011.2 1011.1 -
23/10:28pm 28.9 - - - - SSE 30 43 16 23 1011.2 1011.1 -
23/10:00pm 27.2 - - - - SE 39 44 21 24 1013.2 1013.1 -
23/09:30pm 27.1 - - - - SE 39 46 21 25 1013.2 1013.1 -
23/09:03pm 27.1 - - - - SE 33 43 18 23 1013.3 1013.2 -
23/09:02pm 26.9 - - - - SE 33 43 18 23 1011.0 1010.9 -
23/09:00pm 27.2 - - - - SE 35 43 19 23 1013.4 1013.3 -
23/08:56pm 27.0 - - - - SE 35 43 19 23 1013.2 1013.1 -
23/08:55pm 26.8 - - - - SE 35 43 19 23 1011.0 1010.9 -
23/08:30pm 27.2 - - - - SE 39 48 21 26 1013.1 1013.0 -
23/08:00pm 27.0 - - - - SE 41 46 22 25 1012.8 1012.7 -
23/07:30pm 27.1 - - - - SE 39 44 21 24 1012.6 1012.5 -
23/07:00pm 26.2 - - - - SE 30 43 16 23 1012.1 1012.0 -
23/06:30pm 25.0 - - - - ESE 41 48 22 26 1011.9 1011.8 -
23/06:00pm 25.9 - - - - ESE 39 50 21 27 1011.7 1011.6 -
23/05:52pm 26.7 - - - - SE 32 50 17 27 1011.6 1011.5 -
23/05:30pm 26.2 - - - - SE 39 48 21 26 1011.5 1011.4 -
23/05:00pm 26.5 - - - - SE 39 48 21 26 1011.1 1011.0 -
23/04:30pm 27.3 - - - - SE 41 48 22 26 1010.8 1010.7 -
23/04:00pm 27.3 - - - - SE 39 44 21 24 1010.7 1010.6 -
23/03:30pm 27.2 - - - - SE 35 43 19 23 1010.5 1010.4 -
23/03:00pm 26.9 - - - - SE 37 44 20 24 1010.4 1010.3 -
23/02:30pm 27.1 - - - - SE 37 44 20 24 1010.5 1010.4 -
23/02:00pm 27.5 - - - - SE 35 43 19 23 1010.7 1010.6 -
23/01:30pm 27.5 - - - - SE 37 43 20 23 1011.0 1010.9 -
23/01:00pm 27.2 - - - - SE 37 46 20 25 1011.0 1010.9 -
23/12:30pm 26.9 - - - - SE 35 41 19 22 1011.4 1011.3 -
23/12:00pm 27.2 - - - - SE 37 43 20 23 1011.8 1011.7 -
23/11:30am 27.6 - - - - SE 33 39 18 21 1012.2 1012.1 -
23/11:00am 27.2 - - - - SE 37 46 20 25 1012.6 1012.5 -
23/10:30am 27.3 - - - - SE 33 41 18 22 1012.9 1012.8 -
23/10:00am 27.4 - - - - SE 33 39 18 21 1013.2 1013.1 -
23/09:30am 27.6 - - - - SE 33 41 18 22 1013.1 1013.0 -
23/09:00am 27.6 - - - - SE 35 39 19 21 1012.9 1012.8 -
23/08:30am 27.5 - - - - SE 37 43 20 23 1012.5 1012.4 -
23/08:00am 27.2 - - - - SE 35 43 19 23 1012.1 1012.0 -
23/07:30am 27.2 - - - - SE 37 46 20 25 1012.1 1012.0 -
23/07:00am 27.0 - - - - SE 37 43 20 23 1011.7 1011.6 -
23/06:30am 27.1 - - - - SE 37 43 20 23 1011.3 1011.2 -
23/06:00am 27.1 - - - - SE 37 43 20 23 1010.9 1010.8 -
23/05:30am 27.2 - - - - SE 35 39 19 21 1010.7 1010.6 -
23/05:00am 27.0 - - - - SE 33 39 18 21 1010.4 1010.3 -
23/04:30am 27.0 - - - - ESE 32 39 17 21 1010.2 1010.1 -
23/04:27am 27.0 - - - - ESE 32 39 17 21 1010.2 1010.1 -
23/04:26am 26.8 - - - - ESE 32 39 17 21 1012.7 1012.6 -
23/04:00am 27.2 - - - - SE 35 39 19 21 1010.1 1010.0 -
23/03:30am 26.8 - - - - SE 37 43 20 23 1010.1 1010.0 -
23/03:00am 26.3 - - - - ESE 30 35 16 19 1010.1 1010.0 -
23/02:30am 26.4 - - - - SE 32 39 17 21 1010.2 1010.1 -
23/02:00am 26.3 - - - - SE 30 35 16 19 1010.6 1010.5 -
23/01:30am 26.6 - - - - ESE 32 39 17 21 1010.7 1010.6 -
23/01:00am 26.8 - - - - SE 32 37 17 20 1010.8 1010.7 -
23/12:30am 26.9 - - - - SE 32 37 17 20 1010.9 1010.8 -
23/12:00am 26.9 - - - - ESE 28 37 15 20 1010.9 1010.8 -
 
Date/Time
EST
Temp
°C
App
Temp
°C
Dew
Point
°C
Rel
Hum
%
Delta-T
°C
Wind Press
QNH
hPa
Press
MSL
hPa
Rain since
9am
mm
Dir  Spd
km/h
Gust
km/h
Spd
kts
Gust
kts
22/11:30pm 27.0 - - - - SE 30 35 16 19 1011.2 1011.1 -
22/11:00pm 27.1 - - - - SE 24 28 13 15 1011.3 1011.2 -
22/10:30pm 27.2 - - - - SE 20 24 11 13 1011.5 1011.4 -
22/10:00pm 27.1 - - - - SE 22 28 12 15 1011.4 1011.3 -
22/09:30pm 27.1 - - - - SE 22 28 12 15 1011.4 1011.3 -
22/09:00pm 27.0 - - - - SSE 26 30 14 16 1011.2 1011.1 -
22/08:30pm 27.1 - - - - SE 24 26 13 14 1011.3 1011.2 -
22/08:00pm 26.9 - - - - SE 26 32 14 17 1011.1 1011.0 -
22/07:30pm 26.8 - - - - SE 28 33 15 18 1010.7 1010.6 -
22/07:00pm 26.8 - - - - SSE 28 33 15 18 1010.4 1010.3 -
22/06:30pm 27.0 - - - - SSE 26 32 14 17 1010.1 1010.0 -
22/06:00pm 27.0 - - - - SSE 26 32 14 17 1009.9 1009.8 -
22/05:30pm 26.8 - - - - SSE 26 32 14 17 1009.7 1009.6 -
22/05:00pm 27.0 - - - - S 24 28 13 15 1009.4 1009.3 -
22/04:30pm 27.1 - - - - S 28 33 15 18 1009.1 1009.0 -
22/04:00pm 27.0 - - - - S 30 35 16 19 1008.8 1008.7 -
22/03:30pm 27.1 - - - - S 28 35 15 19 1008.8 1008.7 -
22/03:00pm 27.1 - - - - S 26 33 14 18 1008.8 1008.7 -
22/02:30pm 27.0 - - - - S 28 35 15 19 1008.7 1008.6 -
22/02:00pm 27.1 - - - - S 30 35 16 19 1008.8 1008.7 -

Other formats

Comma delimited format used in spreadsheet applications
http://www.bom.gov.au/fwo/IDQ60801/IDQ60801.94293.axf

JavaScript Object Notation format (JSON) in row-major order
http://www.bom.gov.au/fwo/IDQ60801/IDQ60801.94293.json

Data quality

Most of these data are generated automatically and are frequently updated. Quality checks on data are not normally performed. It is possible for incorrect values to appear. Refer to information at About Latest Weather Observations and please check the disclaimer before using these data.